Links Sitemap Venhuizerweer voor mobiel

AMSTERDAM SCHIPHOL:
Amsterdam Airport Schiphol, Netherlands (EHAM) 52-18N 004-46E -2M
Nov 18, 2019 - 04:55 PM EST / 2019.11.18 2155 UTC
Wind: from the NW (310 degrees) at 12 MPH (10 KT):0
Visibility: greater than 7 mile(s):0
Sky conditions: mostly clear
Temperature: 42 F (6 C)
Dew Point: 37 F (3 C)
Relative Humidity: 81%
Pressure (altimeter): 29.83 in. Hg (1010 hPa)
ob: EHAM 182155Z 31010KT 9999 FEW030 06/03 Q1010 NOSIG
cycle: 22
DEELEN:
Deelen, Netherlands (EHDL) 52-04N 005-53E 52M
Nov 18, 2019 - 04:55 PM EST / 2019.11.18 2155 UTC
Wind: from the W (280 degrees) at 9 MPH (8 KT) (direction variable):0
Visibility: greater than 7 mile(s):0
Sky conditions: overcast
Temperature: 42 F (6 C)
Dew Point: 39 F (4 C)
Relative Humidity: 86%
Pressure (altimeter): 29.80 in. Hg (1009 hPa)
ob: EHDL 182155Z AUTO 28008KT 240V340 9999 BKN081 OVC120 06/04 Q1009 BLU
cycle: 22
DE KOOY:
De Kooy, Netherlands (EHKD) 52-55N 004-47E 14M
Nov 18, 2019 - 04:55 PM EST / 2019.11.18 2155 UTC
Wind: from the NW (310 degrees) at 17 MPH (15 KT) (direction variable):0
Visibility: greater than 7 mile(s):0
Sky conditions: partly cloudy
Weather: Cumulonimbus clouds observed
Temperature: 46 F (8 C)
Dew Point: 39 F (4 C)
Relative Humidity: 75%
Pressure (altimeter): 29.80 in. Hg (1009 hPa)
ob: EHKD 182155Z AUTO 31015KT 270V350 9999 FEW018CB SCT031 08/04 Q1009 BLU
cycle: 22
EELDE:
Groningen Airport Eelde, Netherlands (EHGG) 53-08N 006-35E 4M
Nov 18, 2019 - 04:55 PM EST / 2019.11.18 2155 UTC
Wind: from the WNW (290 degrees) at 12 MPH (10 KT) (direction variable):0
Visibility: greater than 7 mile(s):0
Sky conditions: mostly cloudy
Weather: light rain showers; Cumulonimbus clouds observed
Temperature: 46 F (8 C)
Dew Point: 44 F (7 C)
Relative Humidity: 93%
Pressure (altimeter): 29.68 in. Hg (1005 hPa)
ob: EHGG 182155Z AUTO 29010KT 260V320 9999 -SHRA FEW015CB BKN026 BKN031 08/07 Q1005
cycle: 22
EINDHOVEN:
Eindhoven, Netherlands (EHEH) 51-27N 005-25E 28M
Nov 18, 2019 - 04:55 PM EST / 2019.11.18 2155 UTC
Wind: from the WNW (300 degrees) at 9 MPH (8 KT) (direction variable):0
Visibility: greater than 7 mile(s):0
Sky conditions: mostly cloudy
Temperature: 44 F (7 C)
Dew Point: 39 F (4 C)
Relative Humidity: 81%
Pressure (altimeter): 29.85 in. Hg (1011 hPa)
ob: EHEH 182155Z AUTO 30008KT 240V010 9999 FEW045 BKN061 07/04 Q1011 BLU 29006KT 9999 SCT025 BKN040 TEMPO 4000 RADZ SCT005 BKN012 BKN022
cycle: 22
GILZE-RIJEN:
Gilze-Rijen, Netherlands (EHGR) 51-34N 004-56E 24M
Nov 18, 2019 - 04:55 PM EST / 2019.11.18 2155 UTC
Wind: from the WNW (290 degrees) at 8 MPH (7 KT):0
Visibility: greater than 7 mile(s):0
Sky conditions: overcast
Temperature: 42 F (6 C)
Dew Point: 39 F (4 C)
Relative Humidity: 86%
Pressure (altimeter): 29.85 in. Hg (1011 hPa)
ob: EHGR 182155Z AUTO 29007KT 9999 FEW035 BKN039 OVC044 06/04 Q1011 BLU
cycle: 22
LEEUWARDEN:
Leeuwarden, Netherlands (EHLW) 53-13N 005-46E 11M
Nov 18, 2019 - 04:55 PM EST / 2019.11.18 2155 UTC
Wind: from the NW (310 degrees) at 17 MPH (15 KT) (direction variable):0
Visibility: 5 mile(s):0
Sky conditions: mostly cloudy
Weather: light rain showers; Cumulonimbus clouds observed
Temperature: 46 F (8 C)
Dew Point: 44 F (7 C)
Relative Humidity: 93%
Pressure (altimeter): 29.71 in. Hg (1006 hPa)
ob: EHLW 182155Z AUTO 31015KT 280V340 9000 -SHRA FEW013 BKN015CB BKN018 08/07 Q1006 REDZ WHT
cycle: 22
MAASTRICHT:
Maastricht Airport Zuid Limburg, Netherlands (EHBK) 50-55N 005-47E 116M
Nov 18, 2019 - 04:55 PM EST / 2019.11.18 2155 UTC
Wind: from the W (270 degrees) at 6 MPH (5 KT) (direction variable):0
Visibility: 4 mile(s):0
Sky conditions: mostly cloudy
Weather: light drizzle; Cumulonimbus clouds observed
Temperature: 42 F (6 C)
Dew Point: 42 F (6 C)
Relative Humidity: 100%
Pressure (altimeter): 29.85 in. Hg (1011 hPa)
ob: EHBK 182155Z AUTO 27005KT 230V310 7000 -DZ FEW005 SCT006 BKN008 FEW015CB 06/06 Q1011 REDZ
cycle: 22
ROTTERDAM ZESTIENHOVEN:
Rotterdam Airport Zestienhoven, Netherlands (EHRD) 51-57N 004-27E -4M
Nov 18, 2019 - 04:55 PM EST / 2019.11.18 2155 UTC
Wind: from the NW (310 degrees) at 10 MPH (9 KT) (direction variable):0
Visibility: greater than 7 mile(s):0
Temperature: 44 F (7 C)
Dew Point: 35 F (2 C)
Relative Humidity: 70%
Pressure (altimeter): 29.85 in. Hg (1011 hPa)
ob: EHRD 182155Z AUTO 31009KT 260V350 9999 NCD 07/02 Q1011 NOSIG
cycle: 22
SOESTERBERG:
Soesterberg, Netherlands (EHSB) 52-08N 005-17E 25M
Nov 20, 2008 - 04:25 AM EST / 2008.11.20 0925 UTC
Wind: from the W (280 degrees) at 16 MPH (14 KT):0
Visibility: greater than 7 mile(s):0
Temperature: 51 F (11 C)
Dew Point: 48 F (9 C)
Relative Humidity: 87%
Pressure (altimeter): 29.83 in. Hg (1010 hPa)
ob: EHSB 200925Z AUTO 28014KT 9999 // 11/09 Q1010
cycle: 9
TWENTE:
Twenthe, Netherlands (EHTW) 52-16N 006-54E 57M
Apr 07, 2008 - 08:25 AM EDT / 2008.04.07 1225 UTC
Wind: from the N (010 degrees) at 7 MPH (6 KT):0
Sky conditions: mostly cloudy
Temperature: 46 F (8 C)
Dew Point: 24 F (-4 C)
Relative Humidity: 42%
Pressure (altimeter): 29.59 in. Hg (1002 hPa)
ob: EHTW 071225Z AUTO 01006KT //// // BKN200/// 08/M04 Q1002 RE//
cycle: 12
VALKENBURG:
Valkenburg, Netherlands (EHVB) 52-11N 004-25E 2M
Apr 01, 2010 - 03:55 AM EDT / 2010.04.01 0755 UTC
Wind: from the WSW (250 degrees) at 20 MPH (17 KT):0
Sky conditions: mostly cloudy
Temperature: 41 F (5 C)
Dew Point: 33 F (1 C)
Relative Humidity: 75%
Pressure (altimeter): 29.62 in. Hg (1003 hPa)
ob: EHVB 010755Z AUTO 25017KT 9999NDV FEW021/// BKN037/// 05/01 Q1003 BLU
cycle: 8
VLIELAND:
Vlieland, Netherlands (EHVL) 53-15N 004-55E 12M
Nov 18, 2019 - 04:55 PM EST / 2019.11.18 2155 UTC
Wind: from the NW (320 degrees) at 28 MPH (24 KT):0
Visibility: 2 mile(s):0
Sky conditions: mostly cloudy
Weather: light rain; Cumulonimbus clouds observed
Temperature: 46 F (8 C)
Dew Point: 42 F (6 C)
Relative Humidity: 87%
Pressure (altimeter): 29.77 in. Hg (1008 hPa)
ob: EHVL 182155Z AUTO 32024KT 4100 -RA FEW015CB SCT019 BKN026 08/06 Q1008 RERA REDZ GRN
cycle: 22
VOLKEL:
Volkel, Netherlands (EHVK) 51-39N 005-42E 21M
Nov 18, 2019 - 04:55 PM EST / 2019.11.18 2155 UTC
Wind: from the WNW (290 degrees) at 9 MPH (8 KT) (direction variable):0
Visibility: greater than 7 mile(s):0
Sky conditions: overcast
Temperature: 44 F (7 C)
Dew Point: 41 F (5 C)
Relative Humidity: 87%
Pressure (altimeter): 29.83 in. Hg (1010 hPa)
ob: EHVK 182155Z AUTO 29008KT 260V330 9999 BKN068 OVC073 07/05 Q1010 BLU
cycle: 22
WOENSDRECHT:
Woensdrecht, Netherlands (EHWO) 51-27N 004-20E 17M
Nov 18, 2019 - 04:55 PM EST / 2019.11.18 2155 UTC
Wind: from the WNW (290 degrees) at 7 MPH (6 KT) (direction variable):0
Visibility: greater than 7 mile(s):0
Sky conditions: overcast
Temperature: 44 F (7 C)
Dew Point: 35 F (2 C)
Relative Humidity: 70%
Pressure (altimeter): 29.88 in. Hg (1012 hPa)
ob: EHWO 182155Z AUTO 29006KT 220V310 9999 OVC059 07/02 Q1012 BLU
cycle: 22
Copyright © 2005 - 2019 Venhuizerweer - Alle Rechten Voorbehouden


3.234.210.89